createdAt,value
2023-04-14T00:00:31.728Z,98919.84
2023-04-14T00:02:58.552Z,98911.22
2023-04-14T00:05:31.072Z,98897.34
2023-04-14T00:08:00.205Z,98901.69
2023-04-14T00:10:28.910Z,98881.78
2023-04-14T00:12:55.594Z,98873.13
2023-04-14T00:15:24.721Z,98864.47
2023-04-14T00:17:54.217Z,98859.22
2023-04-14T00:20:21.206Z,98861.81
2023-04-14T00:22:47.837Z,98863.53
2023-04-14T00:25:14.917Z,98860.97
2023-04-14T00:27:41.548Z,98860.13
2023-04-14T00:30:10.690Z,98859.31
2023-04-14T00:32:38.724Z,98848.03
2023-04-14T00:35:05.560Z,98845.44
2023-04-14T00:37:32.237Z,98853.22
2023-04-14T00:40:01.442Z,98865.38
2023-04-14T00:42:33.074Z,98872.34
2023-04-14T00:45:02.169Z,98872.31
2023-04-14T00:47:28.891Z,98866.25
2023-04-14T00:49:58.032Z,98862.78
2023-04-14T00:52:28.068Z,98861.03
2023-04-14T00:54:57.302Z,98858.47
2023-04-14T00:57:26.830Z,98852.41
2023-04-14T00:59:56.112Z,98850.69
2023-04-14T01:02:22.985Z,98851.56
2023-04-14T01:04:54.681Z,98852.44
2023-04-14T01:07:24.338Z,98849.81
2023-04-14T01:09:51.764Z,98851.56
2023-04-14T01:12:26.500Z,98847.25
2023-04-14T01:15:03.681Z,98841.16
2023-04-14T01:17:38.094Z,98820.38
2023-04-14T01:20:08.218Z,98810.84
2023-04-14T01:22:39.124Z,98809.09
2023-04-14T01:25:09.301Z,98796.94
2023-04-14T01:27:36.702Z,98796.97
2023-04-14T01:30:21.993Z,98796.97
2023-04-14T01:32:51.455Z,98785.69
2023-04-14T01:35:20.955Z,98766.63
2023-04-14T01:37:52.676Z,98745.78
2023-04-14T01:40:22.254Z,98748.38
2023-04-14T01:42:50.203Z,98753.59
2023-04-14T01:45:19.175Z,98742.34
2023-04-14T01:47:46.329Z,98748.38
2023-04-14T01:50:13.119Z,98757.09
2023-04-14T01:52:42.899Z,98758.78
2023-04-14T01:55:09.938Z,98767.47
2023-04-14T01:57:40.557Z,98764.84
2023-04-14T02:00:08.787Z,98752.69
2023-04-14T02:02:41.792Z,98757.91
2023-04-14T02:05:09.079Z,98761.38
2023-04-14T02:07:35.710Z,98751.81
2023-04-14T02:10:06.506Z,98755.28
2023-04-14T02:12:33.610Z,98751.81
2023-04-14T02:15:02.780Z,98736.16
2023-04-14T02:17:29.547Z,98734.41
2023-04-14T02:19:58.696Z,98723.13
2023-04-14T02:22:27.659Z,98714.44
2023-04-14T02:24:57.490Z,98710.13
2023-04-14T02:27:30.006Z,98725.72
2023-04-14T02:30:00.697Z,98720.53
2023-04-14T02:32:28.902Z,98729.19
2023-04-14T02:35:07.035Z,98735.25
2023-04-14T02:37:41.238Z,98737.84
2023-04-14T02:40:18.743Z,98733.47
2023-04-14T02:42:46.102Z,98737.81
2023-04-14T02:45:14.094Z,98743.03
2023-04-14T02:47:44.146Z,98736.94
2023-04-14T02:50:11.870Z,98739.59
2023-04-14T02:52:51.557Z,98727.44
2023-04-14T02:55:20.574Z,98722.22
2023-04-14T02:57:50.087Z,98713.50
2023-04-14T03:00:16.902Z,98720.50
2023-04-14T03:02:48.427Z,98717.00
2023-04-14T03:05:15.115Z,98717.00
2023-04-14T03:08:01.255Z,98722.22
2023-04-14T03:10:30.358Z,98720.50
2023-04-14T03:12:59.157Z,98714.38
2023-04-14T03:15:25.949Z,98711.72
2023-04-14T03:17:56.091Z,98706.50
2023-04-14T03:20:24.447Z,98696.94
2023-04-14T03:23:01.354Z,98682.13
2023-04-14T03:25:31.445Z,98685.56
2023-04-14T03:28:00.237Z,98681.22
2023-04-14T03:30:33.547Z,98678.63
2023-04-14T03:33:02.803Z,98668.16
2023-04-14T03:35:29.613Z,98668.16
2023-04-14T03:37:59.837Z,98655.22
2023-04-14T03:40:31.733Z,98641.34
2023-04-14T03:43:02.664Z,98632.69
2023-04-14T03:45:32.847Z,98632.69
2023-04-14T03:48:03.679Z,98641.44
2023-04-14T03:50:36.925Z,98650.13
2023-04-14T03:53:08.484Z,98669.25
2023-04-14T03:55:36.065Z,98715.28
2023-04-14T03:58:09.067Z,98777.72
2023-04-14T04:00:36.035Z,98746.50
2023-04-14T04:03:14.770Z,98736.03
2023-04-14T04:05:54.381Z,98738.69
2023-04-14T04:08:21.412Z,98734.34
2023-04-14T04:10:48.394Z,98710.88
2023-04-14T04:13:17.244Z,98705.59
2023-04-14T04:15:45.704Z,98723.78
2023-04-14T04:18:30.786Z,98707.31
2023-04-14T04:21:00.020Z,98702.97
2023-04-14T04:23:29.280Z,98706.44
2023-04-14T04:25:56.922Z,98716.81
2023-04-14T04:28:31.414Z,98720.31
2023-04-14T04:31:03.017Z,98715.13
2023-04-14T04:33:33.202Z,98708.16
2023-04-14T04:36:00.741Z,98691.59
2023-04-14T04:38:34.494Z,98692.50
2023-04-14T04:41:05.765Z,98688.91
2023-04-14T04:43:39.189Z,98687.97
2023-04-14T04:46:13.088Z,98683.63
2023-04-14T04:48:40.056Z,98688.81
2023-04-14T04:51:14.589Z,98679.22
2023-04-14T04:53:45.997Z,98681.81
2023-04-14T04:56:12.614Z,98692.25
2023-04-14T04:58:41.942Z,98692.22
2023-04-14T05:01:09.499Z,98691.34
2023-04-14T05:03:36.855Z,98699.16
2023-04-14T05:06:04.052Z,98714.84
2023-04-14T05:08:33.573Z,98717.50
2023-04-14T05:11:02.319Z,98725.31
2023-04-14T05:13:28.898Z,98727.97
2023-04-14T05:16:08.811Z,98722.75
2023-04-14T05:18:35.687Z,98734.06
2023-04-14T05:21:05.879Z,98728.81
2023-04-14T05:23:36.411Z,98727.94
2023-04-14T05:26:26.881Z,98724.44
2023-04-14T05:28:57.690Z,98721.00
2023-04-14T05:31:24.452Z,98720.13
2023-04-14T05:33:51.597Z,98708.00
2023-04-14T05:36:18.338Z,98712.38
2023-04-14T05:38:45.032Z,98711.53
2023-04-14T05:41:12.788Z,98708.00
2023-04-14T05:43:39.694Z,98714.97
2023-04-14T05:46:06.720Z,98714.03
2023-04-14T05:48:37.984Z,98720.13
2023-04-14T05:51:08.372Z,98719.25
2023-04-14T05:53:35.089Z,98733.16
2023-04-14T05:56:04.326Z,98729.69
2023-04-14T05:58:33.339Z,98726.19
2023-04-14T06:01:00.011Z,98719.25
2023-04-14T06:03:30.227Z,98723.53
2023-04-14T06:05:59.567Z,98714.75
2023-04-14T06:08:30.400Z,98707.78
2023-04-14T06:10:57.787Z,98701.53
2023-04-14T06:13:27.981Z,98708.41
2023-04-14T06:15:56.439Z,98707.53
2023-04-14T06:18:23.174Z,98717.84
2023-04-14T06:20:54.269Z,98713.38
2023-04-14T06:23:21.847Z,98712.44
2023-04-14T06:25:52.434Z,98703.72
2023-04-14T06:28:23.931Z,98695.88
2023-04-14T06:30:53.075Z,98695.84
2023-04-14T06:33:19.799Z,98698.44
2023-04-14T06:35:46.587Z,98689.66
2023-04-14T06:38:15.551Z,98692.31
2023-04-14T06:40:44.586Z,98688.81
2023-04-14T06:43:14.993Z,98683.44
2023-04-14T06:45:41.868Z,98671.19
2023-04-14T06:48:28.837Z,98675.41
2023-04-14T06:50:56.178Z,98677.94
2023-04-14T06:53:23.425Z,98672.75
2023-04-14T06:55:52.060Z,98678.94
2023-04-14T06:58:19.178Z,98682.41
2023-04-14T07:00:46.001Z,98679.03
2023-04-14T07:03:12.727Z,98672.88
2023-04-14T07:05:39.333Z,98670.19
2023-04-14T07:08:08.542Z,98671.81
2023-04-14T07:10:35.362Z,98678.63
2023-04-14T07:13:04.326Z,98668.84
2023-04-14T07:15:30.994Z,98671.47
2023-04-14T07:18:00.252Z,98663.53
2023-04-14T07:20:29.771Z,98666.03
2023-04-14T07:22:58.694Z,98665.19
2023-04-14T07:25:25.596Z,98662.66
2023-04-14T07:28:02.693Z,98667.09
2023-04-14T07:30:32.506Z,98659.22
2023-04-14T07:32:59.280Z,98661.84
2023-04-14T07:35:26.917Z,98650.34
2023-04-14T07:37:53.520Z,98648.41
2023-04-14T07:40:20.387Z,98644.78
2023-04-14T07:42:47.440Z,98648.09
2023-04-14T07:45:18.871Z,98645.47
2023-04-14T07:47:48.161Z,98648.16
2023-04-14T07:50:19.608Z,98641.28
2023-04-14T07:52:46.607Z,98651.03
2023-04-14T07:55:15.584Z,98653.66
2023-04-14T07:57:42.221Z,98645.84
2023-04-14T08:00:11.421Z,98647.69
2023-04-14T08:02:41.213Z,98652.28
2023-04-14T08:05:08.622Z,98655.09
2023-04-14T08:07:35.595Z,98655.06
2023-04-14T08:10:02.181Z,98665.38
2023-04-14T08:12:28.881Z,98672.50
2023-04-14T08:14:57.234Z,98678.94
2023-04-14T08:17:24.651Z,98667.66
2023-04-14T08:19:51.321Z,98653.78
2023-04-14T08:22:18.550Z,98653.69
2023-04-14T08:24:45.239Z,98648.25
2023-04-14T08:27:11.878Z,98652.44
2023-04-14T08:29:43.364Z,98644.59
2023-04-14T08:32:12.675Z,98634.13
2023-04-14T08:34:39.652Z,98642.88
2023-04-14T08:37:28.654Z,98641.22
2023-04-14T08:39:55.405Z,98645.56
2023-04-14T08:42:22.102Z,98650.75
2023-04-14T08:44:49.459Z,98651.63
2023-04-14T08:47:17.155Z,98650.75
2023-04-14T08:49:47.128Z,98656.06
2023-04-14T08:52:18.666Z,98664.88
2023-04-14T08:54:47.563Z,98666.72
2023-04-14T08:57:14.149Z,98669.34
2023-04-14T08:59:41.463Z,98678.94
2023-04-14T09:02:08.490Z,98679.84
2023-04-14T09:04:53.619Z,98678.19
2023-04-14T09:07:21.309Z,98671.19
2023-04-14T09:09:47.939Z,98667.56
2023-04-14T09:12:15.525Z,98670.97
2023-04-14T09:14:42.064Z,98677.06
2023-04-14T09:17:08.817Z,98688.50
2023-04-14T09:19:38.117Z,98692.88
2023-04-14T09:22:27.153Z,98697.31
2023-04-14T09:24:53.738Z,98690.34
2023-04-14T09:27:20.323Z,98704.31
2023-04-14T09:29:47.038Z,98700.88
2023-04-14T09:32:16.008Z,98698.38
2023-04-14T09:34:53.908Z,98703.72
2023-04-14T09:37:24.761Z,98702.81
2023-04-14T09:39:54.413Z,98700.16
2023-04-14T09:42:21.643Z,98710.53
2023-04-14T09:44:58.111Z,98711.38
2023-04-14T09:47:27.080Z,98707.88
2023-04-14T09:49:58.092Z,98693.97
2023-04-14T09:52:38.651Z,98683.63
2023-04-14T09:55:08.529Z,98683.63
2023-04-14T09:57:38.395Z,98681.00
2023-04-14T10:00:27.488Z,98690.59
2023-04-14T10:02:58.319Z,98685.34
2023-04-14T10:05:29.036Z,98681.00
2023-04-14T10:08:01.163Z,98679.25
2023-04-14T10:10:27.935Z,98691.47
2023-04-14T10:12:54.985Z,98688.88
2023-04-14T10:15:21.888Z,98687.91
2023-04-14T10:17:51.027Z,98688.59
2023-04-14T10:20:17.701Z,98684.13
2023-04-14T10:22:46.628Z,98686.72
2023-04-14T10:25:13.329Z,98686.69
2023-04-14T10:27:45.329Z,98686.84
2023-04-14T10:30:12.744Z,98691.38
2023-04-14T10:32:42.851Z,98694.25
2023-04-14T10:35:12.634Z,98693.44
2023-04-14T10:37:42.261Z,98689.09
2023-04-14T10:40:12.025Z,98690.91
2023-04-14T10:42:57.065Z,98688.47
2023-04-14T10:45:23.794Z,98691.22
2023-04-14T10:47:51.030Z,98688.69
2023-04-14T10:50:18.657Z,98691.28
2023-04-14T10:52:56.080Z,98682.63
2023-04-14T10:55:25.846Z,98681.69
2023-04-14T10:57:54.859Z,98681.69
2023-04-14T11:00:22.334Z,98684.34
2023-04-14T11:03:07.992Z,98683.53
2023-04-14T11:05:46.560Z,98674.78
2023-04-14T11:08:24.616Z,98669.53
2023-04-14T11:10:52.373Z,98675.56
2023-04-14T11:13:21.377Z,98672.88
2023-04-14T11:15:50.705Z,98667.59
2023-04-14T11:18:29.706Z,98671.03
2023-04-14T11:21:02.850Z,98660.59
2023-04-14T11:23:29.553Z,98664.16
2023-04-14T11:25:58.133Z,98665.94
2023-04-14T11:28:31.506Z,98662.44
2023-04-14T11:30:59.182Z,98652.00
2023-04-14T11:33:44.945Z,98650.31
2023-04-14T11:36:16.719Z,98656.47
2023-04-14T11:38:43.383Z,98653.06
2023-04-14T11:41:10.159Z,98649.56
2023-04-14T11:43:46.618Z,98649.59
2023-04-14T11:46:13.624Z,98653.91
2023-04-14T11:48:42.854Z,98649.59
2023-04-14T11:51:09.504Z,98646.13
2023-04-14T11:53:36.247Z,98651.41
2023-04-14T11:56:03.717Z,98641.84
2023-04-14T11:58:34.704Z,98643.59
2023-04-14T12:01:01.302Z,98638.41
2023-04-14T12:03:35.746Z,98640.16
2023-04-14T12:06:03.512Z,98651.53
2023-04-14T12:08:30.470Z,98650.66
2023-04-14T12:10:57.813Z,98635.91
2023-04-14T12:13:27.257Z,98646.41
2023-04-14T12:16:03.173Z,98639.41
2023-04-14T12:18:35.007Z,98633.34
2023-04-14T12:21:06.391Z,98629.88
2023-04-14T12:23:37.915Z,98634.22
2023-04-14T12:26:09.345Z,98625.56
2023-04-14T12:28:41.874Z,98621.22
2023-04-14T12:31:11.497Z,98609.06
2023-04-14T12:33:38.308Z,98596.91
2023-04-14T12:36:09.897Z,98610.78
2023-04-14T12:38:38.920Z,98624.16
2023-04-14T12:41:05.619Z,98619.16
2023-04-14T12:43:37.222Z,98633.97
2023-04-14T12:46:07.961Z,98647.66
2023-04-14T12:48:43.938Z,98651.03
2023-04-14T12:51:12.571Z,98659.59
2023-04-14T12:53:44.506Z,98668.91
2023-04-14T12:56:14.916Z,98664.25
2023-04-14T12:58:42.492Z,98642.34
2023-04-14T13:01:13.110Z,98677.91
2023-04-14T13:03:57.979Z,98670.88
2023-04-14T13:06:25.097Z,98684.81
2023-04-14T13:08:55.095Z,98696.09
2023-04-14T13:11:22.559Z,98700.25
2023-04-14T13:13:52.787Z,98708.97
2023-04-14T13:16:22.294Z,98709.63
2023-04-14T13:18:49.640Z,98690.50
2023-04-14T13:21:16.640Z,98699.91
2023-04-14T13:23:43.564Z,98703.38
2023-04-14T13:26:14.871Z,98695.59
2023-04-14T13:28:45.642Z,98702.59
2023-04-14T13:31:13.285Z,98713.91
2023-04-14T13:33:40.164Z,98717.19
2023-04-14T13:36:07.050Z,98711.06
2023-04-14T13:38:36.666Z,98720.56
2023-04-14T13:41:06.824Z,98738.63
2023-04-14T13:43:33.612Z,98739.50
2023-04-14T13:46:02.662Z,98730.94
2023-04-14T13:48:30.648Z,98723.16
2023-04-14T13:50:59.619Z,98717.06
2023-04-14T13:53:27.297Z,98714.66
2023-04-14T13:55:56.349Z,98722.72
2023-04-14T13:58:23.468Z,98730.56
2023-04-14T14:00:50.453Z,98726.31
2023-04-14T14:03:17.588Z,98732.31
2023-04-14T14:05:46.765Z,98733.81
2023-04-14T14:08:14.217Z,98715.53
2023-04-14T14:10:41.150Z,98719.13
2023-04-14T14:13:08.202Z,98723.66
2023-04-14T14:15:36.975Z,98736.75
2023-04-14T14:18:04.247Z,98738.41
2023-04-14T14:20:32.930Z,98735.88
2023-04-14T14:22:59.548Z,98737.75
2023-04-14T14:25:32.439Z,98751.53
2023-04-14T14:28:01.923Z,98747.91
2023-04-14T14:30:33.361Z,98753.78
2023-04-14T14:33:02.514Z,98743.41
2023-04-14T14:35:29.131Z,98760.72
2023-04-14T14:38:00.936Z,98783.88
2023-04-14T14:40:32.845Z,98768.06
2023-04-14T14:43:00.002Z,98782.56
2023-04-14T14:45:31.127Z,98781.41
2023-04-14T14:47:59.438Z,98776.00
2023-04-14T14:50:26.294Z,98769.16
2023-04-14T14:52:53.997Z,98771.59
2023-04-14T14:55:20.769Z,98781.03
2023-04-14T14:57:47.522Z,98790.47
2023-04-14T15:00:17.237Z,98795.84
2023-04-14T15:02:46.734Z,98812.88
2023-04-14T15:05:13.478Z,98799.84
2023-04-14T15:07:40.621Z,98813.63
2023-04-14T15:10:07.377Z,98802.28
2023-04-14T15:12:34.167Z,98814.16
2023-04-14T15:15:00.900Z,98814.81
2023-04-14T15:17:27.502Z,98814.63
2023-04-14T15:19:54.188Z,98820.47
2023-04-14T15:22:21.092Z,98825.75
2023-04-14T15:24:50.231Z,98837.75
2023-04-14T15:27:16.807Z,98834.31
2023-04-14T15:29:45.750Z,98827.56
2023-04-14T15:32:17.579Z,98833.50
2023-04-14T15:34:51.775Z,98825.69
2023-04-14T15:37:18.566Z,98834.19
2023-04-14T15:39:47.715Z,98845.19
2023-04-14T15:42:14.316Z,98851.22
2023-04-14T15:44:41.478Z,98841.94
2023-04-14T15:47:10.884Z,98849.38
2023-04-14T15:49:37.576Z,98852.94
2023-04-14T15:52:04.329Z,98867.38
2023-04-14T15:54:31.170Z,98864.78
2023-04-14T15:56:57.849Z,98874.22
2023-04-14T15:59:27.747Z,98884.16
2023-04-14T16:01:54.650Z,98876.06
2023-04-14T16:04:21.627Z,98891.47
2023-04-14T16:06:48.548Z,98886.53
2023-04-14T16:09:15.178Z,98894.22
2023-04-14T16:11:41.932Z,98886.25
2023-04-14T16:14:08.520Z,98895.59
2023-04-14T16:16:35.097Z,98906.81
2023-04-14T16:19:02.107Z,98904.88
2023-04-14T16:21:29.037Z,98905.44
2023-04-14T16:23:56.137Z,98901.03
2023-04-14T16:26:25.456Z,98907.47
2023-04-14T16:28:52.645Z,98907.59
2023-04-14T16:31:19.251Z,98910.03
2023-04-14T16:33:48.689Z,98919.50
2023-04-14T16:36:20.568Z,98920.97
2023-04-14T16:38:50.968Z,98919.13
2023-04-14T16:41:17.692Z,98918.19
2023-04-14T16:43:44.820Z,98916.69
2023-04-14T16:46:14.165Z,98924.69
2023-04-14T16:48:41.854Z,98941.88
2023-04-14T16:51:11.719Z,98935.22
2023-04-14T16:53:42.583Z,98941.28
2023-04-14T16:56:15.469Z,98941.44
2023-04-14T16:58:42.437Z,98947.53
2023-04-14T17:01:09.554Z,98957.75
2023-04-14T17:03:39.429Z,98948.34
2023-04-14T17:06:08.659Z,98952.09
2023-04-14T17:08:35.272Z,98966.00
2023-04-14T17:11:02.225Z,98969.47
2023-04-14T17:13:31.539Z,98974.69
2023-04-14T17:16:08.323Z,98967.63
2023-04-14T17:18:36.156Z,98964.03
2023-04-14T17:21:03.379Z,98978.63
2023-04-14T17:23:35.018Z,98971.50
2023-04-14T17:26:02.096Z,98967.44
2023-04-14T17:28:28.876Z,98965.63
2023-04-14T17:30:55.871Z,98970.06
2023-04-14T17:33:28.605Z,98970.72
2023-04-14T17:35:57.760Z,98986.22
2023-04-14T17:38:24.356Z,98996.59
2023-04-14T17:40:54.948Z,98987.69
2023-04-14T17:43:22.648Z,98989.50
2023-04-14T17:45:51.988Z,98999.81
2023-04-14T17:48:21.009Z,99009.28
2023-04-14T17:50:47.800Z,99006.72
2023-04-14T17:53:17.008Z,99011.13
2023-04-14T17:55:43.832Z,99020.31
2023-04-14T17:58:10.734Z,99032.25
2023-04-14T18:00:40.059Z,99044.22
2023-04-14T18:03:06.843Z,99038.97
2023-04-14T18:05:35.822Z,99031.00
2023-04-14T18:08:02.830Z,99038.75
2023-04-14T18:10:32.053Z,99050.75
2023-04-14T18:12:58.685Z,99069.19
2023-04-14T18:15:25.539Z,99069.25
2023-04-14T18:17:55.910Z,99070.06
2023-04-14T18:20:26.362Z,99079.25
2023-04-14T18:22:58.085Z,99082.75
2023-04-14T18:25:25.023Z,99087.91
2023-04-14T18:30:25.970Z,99091.09
2023-04-14T18:32:52.869Z,99098.69
2023-04-14T18:35:22.580Z,99098.59
2023-04-14T18:37:49.283Z,99094.34
2023-04-14T18:40:24.423Z,99104.50
2023-04-14T18:42:54.743Z,99096.78
2023-04-14T18:45:23.713Z,99097.72
2023-04-14T18:47:50.970Z,99096.34
2023-04-14T18:50:22.034Z,99101.69
2023-04-14T18:52:55.119Z,99100.06
2023-04-14T18:55:21.775Z,99096.97
2023-04-14T18:57:49.066Z,99103.47
2023-04-14T19:00:18.149Z,99104.59
2023-04-14T19:02:47.316Z,99110.19
2023-04-14T19:05:16.989Z,99106.31
2023-04-14T19:07:43.582Z,99116.22
2023-04-14T19:10:10.269Z,99106.84
2023-04-14T19:12:40.596Z,99115.34
2023-04-14T19:15:08.185Z,99116.97
2023-04-14T19:17:37.476Z,99121.81
2023-04-14T19:20:04.626Z,99121.97
2023-04-14T19:22:31.402Z,99126.38
2023-04-14T19:24:58.122Z,99138.31
2023-04-14T19:27:24.939Z,99146.03
2023-04-14T19:29:54.365Z,99140.03
2023-04-14T19:32:20.981Z,99155.16
2023-04-14T19:34:50.462Z,99147.94
2023-04-14T19:37:19.562Z,99162.53
2023-04-14T19:39:46.152Z,99165.06
2023-04-14T19:42:13.143Z,99167.06
2023-04-14T19:44:39.781Z,99167.91
2023-04-14T19:47:06.592Z,99165.09
2023-04-14T19:49:33.542Z,99169.94
2023-04-14T19:52:02.284Z,99170.09
2023-04-14T19:54:28.954Z,99169.34
2023-04-14T19:56:55.885Z,99173.88
2023-04-14T19:59:22.777Z,99173.09
2023-04-14T20:01:51.627Z,99176.44
2023-04-14T20:04:22.705Z,99180.81
2023-04-14T20:06:53.705Z,99185.88
2023-04-14T20:09:20.721Z,99183.47
2023-04-14T20:11:49.462Z,99184.59
2023-04-14T20:14:18.568Z,99175.66
2023-04-14T20:16:47.461Z,99179.41
2023-04-14T20:19:14.140Z,99174.34
2023-04-14T20:21:40.858Z,99178.34
2023-04-14T20:24:07.571Z,99182.63
2023-04-14T20:26:42.525Z,99186.25
2023-04-14T20:29:09.585Z,99190.88
2023-04-14T20:31:36.867Z,99181.47
2023-04-14T20:34:04.220Z,99175.09
2023-04-14T20:36:35.686Z,99184.44
2023-04-14T20:39:06.246Z,99179.66
2023-04-14T20:41:36.530Z,99186.22
2023-04-14T20:44:06.457Z,99187.72
2023-04-14T20:46:35.848Z,99191.00
2023-04-14T20:49:05.157Z,99184.75
2023-04-14T20:51:32.386Z,99191.91
2023-04-14T20:53:59.089Z,99195.25
2023-04-14T20:56:28.881Z,99202.09
2023-04-14T20:58:56.554Z,99213.41
2023-04-14T21:01:25.711Z,99199.94
2023-04-14T21:03:52.647Z,99206.22
2023-04-14T21:06:22.154Z,99206.41
2023-04-14T21:08:48.755Z,99207.47
2023-04-14T21:11:19.129Z,99206.53
2023-04-14T21:13:49.682Z,99209.50
2023-04-14T21:16:33.814Z,99204.34
2023-04-14T21:19:04.037Z,99210.47
2023-04-14T21:21:31.873Z,99203.97
2023-04-14T21:23:58.820Z,99198.03
2023-04-14T21:26:25.560Z,99188.78
2023-04-14T21:28:52.234Z,99184.81
2023-04-14T21:31:19.367Z,99188.75
2023-04-14T21:33:46.392Z,99194.97
2023-04-14T21:36:12.972Z,99206.50
2023-04-14T21:38:40.010Z,99211.00
2023-04-14T21:41:09.111Z,99218.22
2023-04-14T21:43:38.763Z,99222.94
2023-04-14T21:46:05.696Z,99232.13
2023-04-14T21:48:32.357Z,99223.91
2023-04-14T21:51:03.993Z,99224.22
2023-04-14T21:53:33.383Z,99223.38
2023-04-14T21:56:10.514Z,99225.09
2023-04-14T21:58:38.104Z,99229.50
2023-04-14T22:01:07.881Z,99233.06
2023-04-14T22:03:37.414Z,99237.47
2023-04-14T22:06:04.459Z,99240.13
2023-04-14T22:08:31.088Z,99246.28
2023-04-14T22:11:00.442Z,99241.94
2023-04-14T22:13:27.029Z,99240.28
2023-04-14T22:15:55.495Z,99238.63
2023-04-14T22:18:24.530Z,99244.50
2023-04-14T22:20:53.666Z,99243.44
2023-04-14T22:23:22.712Z,99241.69
2023-04-14T22:25:49.352Z,99241.59
2023-04-14T22:28:17.608Z,99244.09
2023-04-14T22:30:44.934Z,99249.28
2023-04-14T22:33:11.688Z,99244.88
2023-04-14T22:35:39.032Z,99233.63
2023-04-14T22:38:06.268Z,99235.25
2023-04-14T22:40:35.200Z,99236.91
2023-04-14T22:43:08.447Z,99234.28
2023-04-14T22:45:38.489Z,99236.03
2023-04-14T22:48:05.421Z,99239.44
2023-04-14T22:50:37.535Z,99247.13
2023-04-14T22:53:07.083Z,99247.94
2023-04-14T22:55:38.388Z,99254.78
2023-04-14T22:58:07.478Z,99261.66
2023-04-14T23:00:34.876Z,99252.28
2023-04-14T23:03:01.671Z,99250.63
2023-04-14T23:05:28.595Z,99251.50
2023-04-14T23:07:57.510Z,99251.69
2023-04-14T23:10:24.237Z,99252.75
2023-04-14T23:12:53.315Z,99249.47
2023-04-14T23:15:19.891Z,99248.09
2023-04-14T23:17:49.082Z,99246.41
2023-04-14T23:20:20.571Z,99244.00
2023-04-14T23:22:47.275Z,99244.16
2023-04-14T23:25:16.416Z,99254.72
2023-04-14T23:27:43.535Z,99251.38
2023-04-14T23:30:11.129Z,99264.38
2023-04-14T23:32:38.195Z,99266.97
2023-04-14T23:35:07.649Z,99260.22
2023-04-14T23:37:34.333Z,99268.00
2023-04-14T23:40:00.900Z,99265.47
2023-04-14T23:42:29.881Z,99263.75
2023-04-14T23:44:59.894Z,99270.66
2023-04-14T23:47:29.120Z,99274.94
2023-04-14T23:49:58.276Z,99274.09
2023-04-14T23:52:25.061Z,99266.41
2023-04-14T23:54:51.754Z,99267.31
2023-04-14T23:57:18.732Z,99264.72
2023-04-14T23:59:45.745Z,99260.47
